createdAt,value
2019-05-03T00:00:05.149Z,10.89
2019-05-03T00:01:07.101Z,10.91
2019-05-03T00:02:06.710Z,10.84
2019-05-03T00:03:06.473Z,10.91
2019-05-03T00:04:05.045Z,10.81
2019-05-03T00:05:07.079Z,10.78
2019-05-03T00:06:06.517Z,10.76
2019-05-03T00:07:05.161Z,10.74
2019-05-03T00:08:06.653Z,10.63
2019-05-03T00:09:06.358Z,10.81
2019-05-03T00:10:05.313Z,10.63
2019-05-03T00:11:04.801Z,10.71
2019-05-03T00:12:06.503Z,10.74
2019-05-03T00:13:06.680Z,10.73
2019-05-03T00:14:06.469Z,10.78
2019-05-03T00:15:05.227Z,10.78
2019-05-03T00:16:05.167Z,10.74
2019-05-03T00:17:05.138Z,10.78
2019-05-03T00:18:04.857Z,10.71
2019-05-03T00:19:07.939Z,10.76
2019-05-03T00:20:07.014Z,10.73
2019-05-03T00:21:06.873Z,10.82
2019-05-03T00:22:06.776Z,10.76
2019-05-03T00:23:05.396Z,10.76
2019-05-03T00:24:04.907Z,10.64
2019-05-03T00:25:12.919Z,10.73
2019-05-03T00:26:05.166Z,10.64
2019-05-03T00:27:06.727Z,10.64
2019-05-03T00:28:06.600Z,10.76
2019-05-03T00:29:04.628Z,10.66
2019-05-03T00:30:05.262Z,10.79
2019-05-03T00:31:06.661Z,10.73
2019-05-03T00:32:06.611Z,10.73
2019-05-03T00:33:05.355Z,10.71
2019-05-03T00:34:04.726Z,10.64
2019-05-03T00:35:06.573Z,10.67
2019-05-03T00:36:04.926Z,10.64
2019-05-03T00:37:06.524Z,10.67
2019-05-03T00:38:04.573Z,10.63
2019-05-03T00:39:06.673Z,10.56
2019-05-03T00:40:06.713Z,10.55
2019-05-03T00:41:06.539Z,10.55
2019-05-03T00:42:05.177Z,10.52
2019-05-03T00:43:04.823Z,10.59
2019-05-03T00:44:04.683Z,10.52
2019-05-03T00:45:04.783Z,10.56
2019-05-03T00:46:06.259Z,10.42
2019-05-03T00:47:04.763Z,10.48
2019-05-03T00:48:06.573Z,10.47
2019-05-03T00:49:06.201Z,10.38
2019-05-03T00:50:05.319Z,10.41
2019-05-03T00:51:04.865Z,10.36
2019-05-03T00:52:04.728Z,10.34
2019-05-03T00:53:04.838Z,10.34
2019-05-03T00:54:04.518Z,10.34
2019-05-03T00:55:15.653Z,10.38
2019-05-03T00:56:06.410Z,10.41
2019-05-03T00:57:05.114Z,10.45
2019-05-03T00:58:04.926Z,10.44
2019-05-03T00:59:04.656Z,10.45
2019-05-03T01:00:06.665Z,10.47
2019-05-03T01:01:05.123Z,10.47
2019-05-03T01:02:05.123Z,10.4
2019-05-03T01:03:04.716Z,10.53
2019-05-03T01:04:06.485Z,10.4
2019-05-03T01:05:05.312Z,10.45
2019-05-03T01:06:04.727Z,10.45
2019-05-03T01:07:04.743Z,10.47
2019-05-03T01:08:04.457Z,10.48
2019-05-03T01:09:05.075Z,10.52
2019-05-03T01:10:05.107Z,10.44
2019-05-03T01:11:04.595Z,10.47
2019-05-03T01:12:04.384Z,10.44
2019-05-03T01:13:06.397Z,10.44
2019-05-03T01:14:05.045Z,10.48
2019-05-03T01:15:04.526Z,10.47
2019-05-03T01:16:05.240Z,10.42
2019-05-03T01:17:05.054Z,10.45
2019-05-03T01:18:04.127Z,10.48
2019-05-03T01:19:05.005Z,10.4
2019-05-03T01:20:05.271Z,10.48
2019-05-03T01:21:04.478Z,10.42
2019-05-03T01:22:04.429Z,10.33
2019-05-03T01:23:04.514Z,10.45
2019-05-03T01:24:04.147Z,10.34
2019-05-03T01:25:05.370Z,10.34
2019-05-03T01:26:04.917Z,10.34
2019-05-03T01:27:04.446Z,10.34
2019-05-03T01:28:04.029Z,10.26
2019-05-03T01:29:05.151Z,10.33
2019-05-03T01:30:05.408Z,10.26
2019-05-03T01:31:04.760Z,10.36
2019-05-03T01:32:04.748Z,10.4
2019-05-03T01:33:05.287Z,10.33
2019-05-03T01:34:04.804Z,10.33
2019-05-03T01:35:05.720Z,10.3
2019-05-03T01:36:05.173Z,10.4
2019-05-03T01:37:05.092Z,10.3
2019-05-03T01:38:05.038Z,10.34
2019-05-03T01:39:04.591Z,10.3
2019-05-03T01:40:04.704Z,10.3
2019-05-03T01:41:04.300Z,10.27
2019-05-03T01:42:05.091Z,10.29
2019-05-03T01:43:04.747Z,10.3
2019-05-03T01:44:04.386Z,10.22
2019-05-03T01:45:04.362Z,10.2
2019-05-03T01:46:05.189Z,10.23
2019-05-03T01:47:04.739Z,10.22
2019-05-03T01:48:04.470Z,10.2
2019-05-03T01:49:04.028Z,10.17
2019-05-03T01:50:05.288Z,10.2
2019-05-03T01:51:05.262Z,10.2
2019-05-03T01:52:04.691Z,10.14
2019-05-03T01:53:04.384Z,10.07
2019-05-03T01:54:04.191Z,10.12
2019-05-03T01:55:05.800Z,10.11
2019-05-03T01:56:05.979Z,10.12
2019-05-03T01:57:04.897Z,10.08
2019-05-03T01:58:04.316Z,10.09
2019-05-03T01:59:04.317Z,10.05
2019-05-03T02:00:05.275Z,10.09
2019-05-03T02:01:05.270Z,10.12
2019-05-03T02:02:07.202Z,10.01
2019-05-03T02:03:04.075Z,10.11
2019-05-03T02:04:05.158Z,10.11
2019-05-03T02:05:04.969Z,10.12
2019-05-03T02:06:04.840Z,10.05
2019-05-03T02:07:04.730Z,10.08
2019-05-03T02:08:04.520Z,10.04
2019-05-03T02:09:04.079Z,10.04
2019-05-03T02:10:05.204Z,10.08
2019-05-03T02:11:04.678Z,10.01
2019-05-03T02:12:04.587Z,10.01
2019-05-03T02:13:04.113Z,10.01
2019-05-03T02:14:04.134Z,10.01
2019-05-03T02:15:04.907Z,10.02
2019-05-03T02:16:04.731Z,10.04
2019-05-03T02:17:04.239Z,10.01
2019-05-03T02:18:05.134Z,9.9
2019-05-03T02:19:04.902Z,9.91
2019-05-03T02:20:04.731Z,9.99
2019-05-03T02:21:04.139Z,9.91
2019-05-03T02:22:05.341Z,9.96
2019-05-03T02:23:05.229Z,9.86
2019-05-03T02:24:05.034Z,9.89
2019-05-03T02:25:04.256Z,9.84
2019-05-03T02:26:05.534Z,9.75
2019-05-03T02:27:04.575Z,9.81
2019-05-03T02:28:04.421Z,9.78
2019-05-03T02:29:04.243Z,9.87
2019-05-03T02:30:05.508Z,9.69
2019-05-03T02:31:06.041Z,9.69
2019-05-03T02:32:05.794Z,9.68
2019-05-03T02:33:06.382Z,9.75
2019-05-03T02:34:05.907Z,9.69
2019-05-03T02:35:05.259Z,9.71
2019-05-03T02:36:06.144Z,9.68
2019-05-03T02:37:05.589Z,9.74
2019-05-03T02:38:06.128Z,9.76
2019-05-03T02:39:05.362Z,9.72
2019-05-03T02:40:06.523Z,9.72
2019-05-03T02:41:05.348Z,9.68
2019-05-03T02:42:16.037Z,9.71
2019-05-03T02:43:05.422Z,9.75
2019-05-03T02:44:06.121Z,9.78
2019-05-03T02:45:05.898Z,9.68
2019-05-03T02:46:05.716Z,9.58
2019-05-03T02:47:05.514Z,9.6
2019-05-03T02:48:05.832Z,9.66
2019-05-03T02:49:06.137Z,9.69
2019-05-03T02:50:05.652Z,9.68
2019-05-03T02:51:03.184Z,9.61
2019-05-03T02:52:06.345Z,9.68
2019-05-03T02:53:05.499Z,9.65
2019-05-03T02:54:05.402Z,9.65
2019-05-03T02:55:05.468Z,9.57
2019-05-03T02:56:25.954Z,9.56
2019-05-03T02:57:06.010Z,9.66
2019-05-03T02:58:05.566Z,9.68
2019-05-03T02:59:05.995Z,9.64
2019-05-03T03:00:05.007Z,9.66
2019-05-03T03:01:03.085Z,9.65
2019-05-03T03:02:06.103Z,9.64
2019-05-03T03:03:05.469Z,9.64
2019-05-03T03:04:05.227Z,9.56
2019-05-03T03:05:05.623Z,9.66
2019-05-03T03:06:03.025Z,9.6
2019-05-03T03:07:05.483Z,9.72
2019-05-03T03:08:05.744Z,9.64
2019-05-03T03:09:05.298Z,9.64
2019-05-03T03:10:05.266Z,9.68
2019-05-03T03:11:02.973Z,9.72
2019-05-03T03:12:05.832Z,9.68
2019-05-03T03:13:05.738Z,9.68
2019-05-03T03:14:05.519Z,9.66
2019-05-03T03:15:05.896Z,9.75
2019-05-03T03:16:02.933Z,9.66
2019-05-03T03:17:02.682Z,9.66
2019-05-03T03:18:02.905Z,9.74
2019-05-03T03:19:02.891Z,9.74
2019-05-03T03:20:05.315Z,9.74
2019-05-03T03:21:02.871Z,9.6
2019-05-03T03:22:05.657Z,9.66
2019-05-03T03:23:02.857Z,9.56
2019-05-03T03:24:05.786Z,9.48
2019-05-03T03:25:05.275Z,9.5
2019-05-03T03:26:02.821Z,9.47
2019-05-03T03:27:05.143Z,9.46
2019-05-03T03:28:05.158Z,9.47
2019-05-03T03:29:05.283Z,9.46
2019-05-03T03:30:02.779Z,9.47
2019-05-03T03:31:02.776Z,9.47
2019-05-03T03:32:08.369Z,9.53
2019-05-03T03:33:07.977Z,9.5
2019-05-03T03:34:08.036Z,9.53
2019-05-03T03:35:20.062Z,9.51
2019-05-03T03:37:00.511Z,9.54
2019-05-03T03:37:20.735Z,9.42
2019-05-03T03:38:20.674Z,9.43
2019-05-03T03:39:20.659Z,9.4
2019-05-03T03:40:20.949Z,9.46
2019-05-03T03:41:21.128Z,9.36
2019-05-03T03:42:21.131Z,9.42
2019-05-03T03:43:20.618Z,9.38
2019-05-03T03:44:20.614Z,9.38
2019-05-03T03:45:21.434Z,9.4
2019-05-03T03:46:20.758Z,9.29
2019-05-03T03:47:21.335Z,9.33
2019-05-03T03:48:20.466Z,9.29
2019-05-03T03:49:20.553Z,9.35
2019-05-03T03:50:20.545Z,9.28
2019-05-03T03:51:20.533Z,9.28
2019-05-03T03:52:20.896Z,9.21
2019-05-03T03:53:20.508Z,9.28
2019-05-03T03:54:20.504Z,9.15
2019-05-03T03:55:20.957Z,9.18
2019-05-03T03:56:20.899Z,9.1
2019-05-03T03:57:20.813Z,9.18
2019-05-03T03:58:29.617Z,9.11
2019-05-03T03:59:20.446Z,9.18
2019-05-03T04:00:21.162Z,9.2
2019-05-03T04:01:20.568Z,9.2
2019-05-03T04:02:20.943Z,9.11
2019-05-03T04:03:20.693Z,9.14
2019-05-03T04:04:20.920Z,9.14
2019-05-03T04:05:20.815Z,9.17
2019-05-03T04:06:20.374Z,9.13
2019-05-03T04:07:20.641Z,9.14
2019-05-03T04:08:21.032Z,9.14
2019-05-03T04:09:20.920Z,9.2
2019-05-03T04:10:20.558Z,9.21
2019-05-03T04:11:20.465Z,9.13
2019-05-03T04:12:21.420Z,9.05
2019-05-03T04:13:20.879Z,9.08
2019-05-03T04:14:20.991Z,9.02
2019-05-03T04:15:20.829Z,9.1
2019-05-03T04:16:28.184Z,9.04
2019-05-03T04:17:20.253Z,9.05
2019-05-03T04:18:21.164Z,9.17
2019-05-03T04:19:22.241Z,9.15
2019-05-03T04:20:21.089Z,9.21
2019-05-03T04:21:21.052Z,9.32
2019-05-03T04:22:21.346Z,9.4
2019-05-03T04:23:21.136Z,9.51
2019-05-03T04:24:21.176Z,9.61
2019-05-03T04:25:20.247Z,9.79
2019-05-03T04:26:21.111Z,9.89
2019-05-03T04:27:30.119Z,10.01
2019-05-03T04:28:21.113Z,10.07
2019-05-03T04:29:20.973Z,10.25
2019-05-03T04:30:21.405Z,10.42
2019-05-03T04:31:20.173Z,10.42
2019-05-03T04:32:24.514Z,10.61
2019-05-03T04:33:20.867Z,10.73
2019-05-03T04:34:21.032Z,10.85
2019-05-03T04:35:21.312Z,11.06
2019-05-03T04:36:20.580Z,11.19
2019-05-03T04:37:21.138Z,11.32
2019-05-03T04:38:21.132Z,11.4
2019-05-03T04:39:27.975Z,11.58
2019-05-03T04:40:20.761Z,11.54
2019-05-03T04:41:20.735Z,11.72
2019-05-03T04:42:21.534Z,11.82
2019-05-03T04:43:21.376Z,11.82
2019-05-03T04:44:20.188Z,11.82
2019-05-03T04:45:21.143Z,11.76
2019-05-03T04:46:21.237Z,11.82
2019-05-03T04:47:20.586Z,12.02
2019-05-03T04:48:20.919Z,12.04
2019-05-03T04:49:19.965Z,12.16
2019-05-03T04:50:21.276Z,12.32
2019-05-03T04:51:21.522Z,12.32
2019-05-03T04:52:21.352Z,12.52
2019-05-03T04:53:21.049Z,12.65
2019-05-03T04:54:21.293Z,12.72
2019-05-03T04:55:20.927Z,12.9
2019-05-03T04:56:21.728Z,13.11
2019-05-03T04:57:45.686Z,13.28
2019-05-03T04:58:21.058Z,13.26
2019-05-03T04:59:20.817Z,13.41
2019-05-03T05:00:20.908Z,13.38
2019-05-03T05:01:20.758Z,13.3
2019-05-03T05:02:20.777Z,13.32
2019-05-03T05:03:20.042Z,13.39
2019-05-03T05:04:20.963Z,13.6
2019-05-03T05:05:20.318Z,13.85
2019-05-03T05:06:20.359Z,14.07
2019-05-03T05:07:20.458Z,14.24
2019-05-03T05:08:21.090Z,14.47
2019-05-03T05:09:20.423Z,14.7
2019-05-03T05:10:20.350Z,14.89
2019-05-03T05:11:20.644Z,15.09
2019-05-03T05:12:21.114Z,15.27
2019-05-03T05:13:20.603Z,15.34
2019-05-03T05:14:20.185Z,15.44
2019-05-03T05:15:20.582Z,15.53
2019-05-03T05:16:20.842Z,15.5
2019-05-03T05:17:21.188Z,15.6
2019-05-03T05:18:20.837Z,15.75
2019-05-03T05:19:20.028Z,15.96
2019-05-03T05:20:19.767Z,16.12
2019-05-03T05:21:19.811Z,16.41
2019-05-03T05:22:20.367Z,16.66
2019-05-03T05:23:19.511Z,16.67
2019-05-03T05:24:19.963Z,16.63
2019-05-03T05:25:19.747Z,16.63
2019-05-03T05:26:19.744Z,16.83
2019-05-03T05:27:19.740Z,17.14
2019-05-03T05:28:19.920Z,17.25
2019-05-03T05:29:19.737Z,17.59
2019-05-03T05:30:19.783Z,17.87
2019-05-03T05:31:20.020Z,18.18
2019-05-03T05:32:19.724Z,18.45
2019-05-03T05:33:19.720Z,18.88
2019-05-03T05:34:20.169Z,19.19
2019-05-03T05:35:19.717Z,19.63
2019-05-03T05:36:20.170Z,19.95
2019-05-03T05:37:19.723Z,20.11
2019-05-03T05:38:19.795Z,20.32
2019-05-03T05:39:21.319Z,20.66
2019-05-03T05:40:20.421Z,20.82
2019-05-03T05:41:20.395Z,20.82
2019-05-03T05:42:19.754Z,20.69
2019-05-03T05:43:20.031Z,20.52
2019-05-03T05:44:19.719Z,20.39
2019-05-03T05:45:20.184Z,20.2
2019-05-03T05:46:19.713Z,19.88
2019-05-03T05:47:19.799Z,19.63
2019-05-03T05:48:20.176Z,19.33
2019-05-03T05:49:19.710Z,19
2019-05-03T05:50:19.708Z,18.84
2019-05-03T05:51:20.684Z,18.55
2019-05-03T05:52:20.346Z,18.39
2019-05-03T05:53:20.087Z,18.25
2019-05-03T05:54:19.704Z,18.17
2019-05-03T05:55:19.717Z,18.2
2019-05-03T05:56:20.567Z,18.11
2019-05-03T05:57:19.739Z,18
2019-05-03T05:58:20.473Z,18
2019-05-03T05:59:19.749Z,18.12
2019-05-03T06:00:19.861Z,18.29
2019-05-03T06:01:19.700Z,18.52
2019-05-03T06:02:19.849Z,18.75
2019-05-03T06:03:19.780Z,18.9
2019-05-03T06:04:20.209Z,19.04
2019-05-03T06:05:19.694Z,19.31
2019-05-03T06:06:20.090Z,19.48
2019-05-03T06:07:19.695Z,19.62
2019-05-03T06:08:19.946Z,19.87
2019-05-03T06:09:20.107Z,19.92
2019-05-03T06:10:21.519Z,20.05
2019-05-03T06:11:19.711Z,20.18
2019-05-03T06:12:19.858Z,20.41
2019-05-03T06:13:20.044Z,20.69
2019-05-03T06:14:20.085Z,20.98
2019-05-03T06:15:19.823Z,21.06
2019-05-03T06:16:20.295Z,21.16
2019-05-03T06:17:19.709Z,21.21
2019-05-03T06:18:19.717Z,21.29
2019-05-03T06:19:19.710Z,21.03
2019-05-03T06:20:20.383Z,20.74
2019-05-03T06:21:19.718Z,20.7
2019-05-03T06:22:20.147Z,20.79
2019-05-03T06:23:19.722Z,21.01
2019-05-03T06:24:19.744Z,21.1
2019-05-03T06:25:21.551Z,21.12
2019-05-03T06:26:20.414Z,21.16
2019-05-03T06:27:20.071Z,21.17
2019-05-03T06:28:27.495Z,21.29
2019-05-03T06:29:19.844Z,21.37
2019-05-03T06:30:19.768Z,21.49
2019-05-03T06:31:25.243Z,21.65
2019-05-03T06:32:20.176Z,21.79
2019-05-03T06:33:19.762Z,21.84
2019-05-03T06:34:19.849Z,21.74
2019-05-03T06:35:19.981Z,21.77
2019-05-03T06:36:20.080Z,21.91
2019-05-03T06:37:19.779Z,22.1
2019-05-03T06:38:20.046Z,22.25
2019-05-03T06:39:20.253Z,22.39
2019-05-03T06:40:19.870Z,22.24
2019-05-03T06:41:19.937Z,22.17
2019-05-03T06:42:25.619Z,22.27
2019-05-03T06:43:20.330Z,22.42
2019-05-03T06:44:29.816Z,22.77
2019-05-03T06:45:19.944Z,23.07
2019-05-03T06:46:31.683Z,23.36
2019-05-03T06:47:19.594Z,23.68
2019-05-03T06:48:27.796Z,23.65
2019-05-03T06:49:20.142Z,23.47
2019-05-03T06:50:29.920Z,23.15
2019-05-03T06:51:24.895Z,23.23
2019-05-03T06:52:31.398Z,23.17
2019-05-03T06:53:20.362Z,23.25
2019-05-03T06:54:26.525Z,23.2
2019-05-03T06:55:19.879Z,22.97
2019-05-03T06:56:30.123Z,22.76
2019-05-03T06:57:19.885Z,22.45
2019-05-03T06:58:36.556Z,22.51
2019-05-03T06:59:19.885Z,22.52
2019-05-03T07:00:19.995Z,22.51
2019-05-03T07:01:19.897Z,22.33
2019-05-03T07:02:19.915Z,21.98
2019-05-03T07:03:19.982Z,21.72
2019-05-03T07:04:20.072Z,21.43
2019-05-03T07:05:20.062Z,21.27
2019-05-03T07:06:33.248Z,21.09
2019-05-03T07:07:20.319Z,20.8
2019-05-03T07:08:20.028Z,20.55
2019-05-03T07:09:19.931Z,20.64
2019-05-03T07:10:19.943Z,20.99
2019-05-03T07:11:20.271Z,21.21
2019-05-03T07:12:19.941Z,21.59
2019-05-03T07:13:20.072Z,21.88
2019-05-03T07:14:20.401Z,22.27
2019-05-03T07:15:19.957Z,22.31
2019-05-03T07:16:19.959Z,22.24
2019-05-03T07:17:19.959Z,22.33
2019-05-03T07:18:20.570Z,22.43
2019-05-03T07:19:19.967Z,22.47
2019-05-03T07:20:19.971Z,22.46
2019-05-03T07:21:20.092Z,22.58
2019-05-03T07:22:20.098Z,22.37
2019-05-03T07:23:20.488Z,22.12
2019-05-03T07:24:19.988Z,21.82
2019-05-03T07:25:19.995Z,21.58
2019-05-03T07:26:19.992Z,21.31
2019-05-03T07:27:20.659Z,21.07
2019-05-03T07:28:20.002Z,21.01
2019-05-03T07:29:20.143Z,21.19
2019-05-03T07:30:20.463Z,21.17
2019-05-03T07:31:20.054Z,21.24
2019-05-03T07:32:20.424Z,21.17
2019-05-03T07:33:20.008Z,21.03
2019-05-03T07:34:20.441Z,20.85
2019-05-03T07:35:20.012Z,20.66
2019-05-03T07:36:20.244Z,20.21
2019-05-03T07:37:20.020Z,20.17
2019-05-03T07:38:20.309Z,20.03
2019-05-03T07:39:20.015Z,19.94
2019-05-03T07:40:20.019Z,20.05
2019-05-03T07:41:20.021Z,20.32
2019-05-03T07:42:20.470Z,20.76
2019-05-03T07:43:21.379Z,21.17
2019-05-03T07:44:19.810Z,21.37
2019-05-03T07:45:20.035Z,21.44
2019-05-03T07:46:20.030Z,21.59
2019-05-03T07:47:20.035Z,21.56
2019-05-03T07:48:20.042Z,21.75
2019-05-03T07:49:20.221Z,22.05
2019-05-03T07:50:20.120Z,22.33
2019-05-03T07:51:20.058Z,22.46
2019-05-03T07:52:20.058Z,22.55
2019-05-03T07:53:20.064Z,22.64
2019-05-03T07:54:20.557Z,22.62
2019-05-03T07:55:20.072Z,22.61
2019-05-03T07:56:20.505Z,22.52
2019-05-03T07:57:22.923Z,22.51
2019-05-03T07:58:20.104Z,22.51
2019-05-03T07:59:20.094Z,22.52
2019-05-03T08:00:20.099Z,22.64
2019-05-03T08:01:20.104Z,22.79
2019-05-03T08:02:20.134Z,22.73
2019-05-03T08:03:20.344Z,22.68
2019-05-03T08:04:20.259Z,22.67
2019-05-03T08:05:20.340Z,22.33
2019-05-03T08:06:20.148Z,22.15
2019-05-03T08:07:28.228Z,22
2019-05-03T08:08:20.144Z,21.94
2019-05-03T08:09:20.152Z,22
2019-05-03T08:10:20.158Z,22.07
2019-05-03T08:11:20.165Z,22.09
2019-05-03T08:12:20.191Z,22.05
2019-05-03T08:13:20.178Z,22.05
2019-05-03T08:14:22.901Z,21.84
2019-05-03T08:15:20.538Z,21.5
2019-05-03T08:16:20.878Z,21.35
2019-05-03T08:17:20.202Z,21.27
2019-05-03T08:18:20.338Z,21.12
2019-05-03T08:19:23.226Z,21.13
2019-05-03T08:20:20.201Z,21.14
2019-05-03T08:21:20.214Z,21.1
2019-05-03T08:22:20.205Z,21.14
2019-05-03T08:23:35.000Z,21.34
2019-05-03T08:24:22.502Z,21.49
2019-05-03T08:25:20.217Z,21.49
2019-05-03T08:26:20.223Z,21.37
2019-05-03T08:27:20.251Z,21.03
2019-05-03T08:28:20.226Z,20.7
2019-05-03T08:29:24.837Z,20.54
2019-05-03T08:30:20.233Z,20.51
2019-05-03T08:31:20.239Z,20.26
2019-05-03T08:32:20.238Z,20.08
2019-05-03T08:33:20.242Z,19.92
2019-05-03T08:34:20.248Z,19.76
2019-05-03T08:35:20.301Z,19.69
2019-05-03T08:36:20.505Z,19.59
2019-05-03T08:37:20.259Z,19.5
2019-05-03T08:38:20.280Z,19.44
2019-05-03T08:39:20.628Z,19.31
2019-05-03T08:40:20.427Z,19.19
2019-05-03T08:41:20.260Z,19.18
2019-05-03T08:42:20.264Z,19.04
2019-05-03T08:43:20.490Z,18.99
2019-05-03T08:44:20.269Z,18.76
2019-05-03T08:45:20.269Z,18.8
2019-05-03T08:46:20.262Z,18.81
2019-05-03T08:47:20.365Z,18.73
2019-05-03T08:48:20.274Z,18.75
2019-05-03T08:49:20.266Z,18.7
2019-05-03T08:50:28.146Z,18.63
2019-05-03T08:51:20.267Z,18.52
2019-05-03T08:52:20.566Z,18.3
2019-05-03T08:53:20.575Z,18.26
2019-05-03T08:54:20.263Z,18.2
2019-05-03T08:55:20.755Z,18.12
2019-05-03T08:56:20.590Z,18.03
2019-05-03T08:57:20.255Z,17.87
2019-05-03T08:58:20.399Z,17.99
2019-05-03T08:59:35.680Z,17.82
2019-05-03T09:00:20.252Z,17.79
2019-05-03T09:01:20.295Z,17.56
2019-05-03T09:02:22.421Z,17.36
2019-05-03T09:03:20.235Z,17.26
2019-05-03T09:04:33.065Z,17.12
2019-05-03T09:05:30.089Z,16.98
2019-05-03T09:06:30.078Z,16.98
2019-05-03T09:07:30.278Z,17
2019-05-03T09:08:30.079Z,17.18
2019-05-03T09:09:30.335Z,17.19
2019-05-03T09:10:30.066Z,17.28
2019-05-03T09:11:39.378Z,17.43
2019-05-03T09:12:30.103Z,17.46
2019-05-03T09:13:30.086Z,17.43
2019-05-03T09:14:48.547Z,17.4
2019-05-03T09:15:30.056Z,17.23
2019-05-03T09:16:29.803Z,17.28
2019-05-03T09:17:30.043Z,17.23
2019-05-03T09:18:30.686Z,17.3
2019-05-03T09:19:30.259Z,17.4
2019-05-03T09:20:32.332Z,17.4
2019-05-03T09:21:30.414Z,17.3
2019-05-03T09:22:30.388Z,17.28
2019-05-03T09:23:30.815Z,17.12
2019-05-03T09:24:30.020Z,17.14
2019-05-03T09:25:30.020Z,17.15
2019-05-03T09:26:34.796Z,17.14
2019-05-03T09:27:30.125Z,17.06
2019-05-03T09:28:34.833Z,16.94
2019-05-03T09:29:45.921Z,16.82
2019-05-03T09:30:29.997Z,16.81
2019-05-03T09:31:29.994Z,16.7
2019-05-03T09:32:30.506Z,16.61
2019-05-03T09:33:29.984Z,16.56
2019-05-03T09:34:30.544Z,16.52
2019-05-03T09:35:38.501Z,16.45
2019-05-03T09:36:30.279Z,16.45
2019-05-03T09:37:29.964Z,16.34
2019-05-03T09:38:30.493Z,16.33
2019-05-03T09:39:29.957Z,16.31
2019-05-03T09:40:29.965Z,16.28
2019-05-03T09:41:30.529Z,16.21
2019-05-03T09:42:29.941Z,16.2
2019-05-03T09:43:29.966Z,16.2
2019-05-03T09:44:29.938Z,16.21
2019-05-03T09:45:29.935Z,16.05
2019-05-03T09:46:31.365Z,16.02
2019-05-03T09:47:29.920Z,15.86
2019-05-03T09:48:30.412Z,15.78
2019-05-03T09:49:30.200Z,15.74
2019-05-03T09:50:29.927Z,15.71
2019-05-03T09:51:30.374Z,15.71
2019-05-03T09:52:30.037Z,15.71
2019-05-03T09:53:30.418Z,15.68
2019-05-03T09:54:30.348Z,15.62
2019-05-03T09:55:30.169Z,15.59
2019-05-03T09:56:30.685Z,15.67
2019-05-03T09:57:29.876Z,15.57
2019-05-03T09:58:31.147Z,15.56
2019-05-03T09:59:30.297Z,15.43
2019-05-03T10:00:29.855Z,15.44
2019-05-03T10:01:30.352Z,15.51
2019-05-03T10:02:29.848Z,15.57
2019-05-03T10:03:29.842Z,15.6
2019-05-03T10:04:30.371Z,15.56
2019-05-03T10:05:30.482Z,15.54
2019-05-03T10:06:29.934Z,15.44
2019-05-03T10:07:30.647Z,15.36
2019-05-03T10:08:30.319Z,15.35
2019-05-03T10:09:31.049Z,15.34
2019-05-03T10:10:29.805Z,15.43
2019-05-03T10:11:30.207Z,15.34
2019-05-03T10:12:30.438Z,15.39
2019-05-03T10:13:32.027Z,15.51
2019-05-03T10:14:29.786Z,15.56
2019-05-03T10:15:30.804Z,15.75
2019-05-03T10:16:29.781Z,15.97
2019-05-03T10:17:30.067Z,16.09
2019-05-03T10:18:30.275Z,16.05
2019-05-03T10:19:45.030Z,16.27
2019-05-03T10:20:30.056Z,16.33
2019-05-03T10:21:30.563Z,16.33
2019-05-03T10:22:30.042Z,16.34
2019-05-03T10:23:29.746Z,16.28
2019-05-03T10:24:29.731Z,16.3
2019-05-03T10:25:29.727Z,16.35
2019-05-03T10:26:29.722Z,16.24
2019-05-03T10:27:29.968Z,16.21
2019-05-03T10:28:29.927Z,16.31
2019-05-03T10:29:29.924Z,16.31
2019-05-03T10:30:29.730Z,16.43
2019-05-03T10:31:30.009Z,16.56
2019-05-03T10:32:30.192Z,16.68
2019-05-03T10:33:30.911Z,16.73
2019-05-03T10:34:29.687Z,16.75
2019-05-03T10:35:29.445Z,16.88
2019-05-03T10:36:29.895Z,16.94
2019-05-03T10:37:29.671Z,17
2019-05-03T10:38:29.666Z,17.04
2019-05-03T10:39:31.053Z,17.04
2019-05-03T10:40:29.662Z,17.12
2019-05-03T10:41:29.977Z,17.06
2019-05-03T10:42:29.653Z,17.06
2019-05-03T10:43:29.666Z,17.22
2019-05-03T10:44:29.645Z,17.15
2019-05-03T10:45:32.641Z,17.3
2019-05-03T10:46:29.915Z,17.4
2019-05-03T10:47:30.257Z,17.41
2019-05-03T10:48:29.911Z,17.56
2019-05-03T10:49:29.622Z,17.59
2019-05-03T10:50:30.095Z,17.7
2019-05-03T10:51:29.604Z,17.72
2019-05-03T10:52:30.622Z,17.68
2019-05-03T10:53:29.599Z,17.72
2019-05-03T10:54:29.594Z,17.87
2019-05-03T10:55:29.868Z,17.89
2019-05-03T10:56:31.616Z,17.78
2019-05-03T10:57:29.661Z,17.81
2019-05-03T10:58:29.812Z,17.81
2019-05-03T10:59:29.748Z,17.87
2019-05-03T11:00:56.657Z,17.72
2019-05-03T11:01:29.782Z,17.79
2019-05-03T11:02:30.155Z,17.81
2019-05-03T11:03:29.563Z,17.72
2019-05-03T11:04:29.555Z,17.87
2019-05-03T11:05:29.546Z,17.75
2019-05-03T11:06:30.282Z,17.66
2019-05-03T11:07:30.495Z,17.71
2019-05-03T11:08:30.118Z,17.75
2019-05-03T11:09:30.759Z,17.87
2019-05-03T11:10:30.159Z,17.86
2019-05-03T11:11:30.715Z,18
2019-05-03T11:12:30.250Z,18.08
2019-05-03T11:13:31.289Z,18.15
2019-05-03T11:14:30.624Z,18.11
2019-05-03T11:15:30.684Z,18.08
2019-05-03T11:16:30.577Z,18.1
2019-05-03T11:17:30.460Z,18.1
2019-05-03T11:18:30.631Z,17.99
2019-05-03T11:19:30.220Z,17.99
2019-05-03T11:20:37.038Z,18.12
2019-05-03T11:21:37.168Z,18.08
2019-05-03T11:22:30.128Z,17.99
2019-05-03T11:23:29.960Z,18.02
2019-05-03T11:24:32.182Z,17.99
2019-05-03T11:25:29.702Z,17.95
2019-05-03T11:26:30.077Z,17.79
2019-05-03T11:27:29.621Z,17.79
2019-05-03T11:28:29.784Z,17.82
2019-05-03T11:29:29.593Z,17.82
2019-05-03T11:30:29.467Z,17.82
2019-05-03T11:31:29.631Z,18.02
2019-05-03T11:32:30.304Z,18.08
2019-05-03T11:33:29.528Z,18.2
2019-05-03T11:34:30.153Z,18.27
2019-05-03T11:35:29.492Z,18.41
2019-05-03T11:36:31.737Z,18.35
2019-05-03T11:37:29.926Z,18.3
2019-05-03T11:38:30.207Z,18.48
2019-05-03T11:39:30.890Z,18.37
2019-05-03T11:40:29.988Z,18.42
2019-05-03T11:41:35.792Z,18.41
2019-05-03T11:42:42.142Z,18.32
2019-05-03T11:43:29.649Z,18.41
2019-05-03T11:44:29.411Z,18.35
2019-05-03T11:45:29.418Z,18.32
2019-05-03T11:46:29.610Z,18.27
2019-05-03T11:47:32.241Z,18.27
2019-05-03T11:48:30.114Z,18.3
2019-05-03T11:49:30.244Z,18.29
2019-05-03T11:50:30.232Z,18.3
2019-05-03T11:51:29.654Z,18.41
2019-05-03T11:52:30.688Z,18.44
2019-05-03T11:53:29.984Z,18.45
2019-05-03T11:54:29.832Z,18.45
2019-05-03T11:55:31.670Z,18.52
2019-05-03T11:56:29.756Z,18.6
2019-05-03T11:57:31.084Z,18.57
2019-05-03T11:58:31.972Z,18.48
2019-05-03T11:59:31.166Z,18.41
2019-05-03T12:00:30.077Z,18.54
2019-05-03T12:01:30.512Z,18.45
2019-05-03T12:02:29.581Z,18.54
2019-05-03T12:03:29.952Z,18.6
2019-05-03T12:04:29.547Z,18.66
2019-05-03T12:05:29.355Z,18.54
2019-05-03T12:06:29.478Z,18.62
2019-05-03T12:07:45.297Z,18.52
2019-05-03T12:08:29.859Z,18.44
2019-05-03T12:09:29.304Z,18.47
2019-05-03T12:11:01.501Z,18.47
2019-05-03T12:11:29.298Z,18.51
2019-05-03T12:12:31.886Z,18.5
2019-05-03T12:13:29.481Z,18.44
2019-05-03T12:14:29.283Z,18.58
2019-05-03T12:15:29.276Z,18.57
2019-05-03T12:17:26.698Z,18.7
2019-05-03T12:17:57.968Z,18.8
2019-05-03T12:18:56.901Z,18.91
2019-05-03T12:19:47.063Z,19
2019-05-03T12:20:46.379Z,19.02
2019-05-03T12:21:44.079Z,18.99
2019-05-03T12:22:42.522Z,18.99
2019-05-03T12:23:45.442Z,18.92
2019-05-03T12:24:43.296Z,18.98
2019-05-03T12:25:43.002Z,19.02
2019-05-03T12:26:49.501Z,19.11
2019-05-03T12:27:40.127Z,19.19
2019-05-03T12:28:40.235Z,19.21
2019-05-03T12:29:40.119Z,19.37
2019-05-03T12:30:40.461Z,19.23
2019-05-03T12:31:45.637Z,19.31
2019-05-03T12:32:40.096Z,19.33
2019-05-03T12:33:40.411Z,19.36
2019-05-03T12:34:40.168Z,19.4
2019-05-03T12:35:40.658Z,19.33
2019-05-03T12:36:43.795Z,19.41
2019-05-03T12:37:40.301Z,19.41
2019-05-03T12:38:40.089Z,19.4
2019-05-03T12:39:40.716Z,19.44
2019-05-03T12:40:40.071Z,19.33
2019-05-03T12:41:40.081Z,19.16
2019-05-03T12:42:40.406Z,19.06
2019-05-03T12:43:40.062Z,19.04
2019-05-03T12:44:40.352Z,19.04
2019-05-03T12:45:40.360Z,18.95
2019-05-03T12:46:40.193Z,18.95
2019-05-03T12:47:40.053Z,18.94
2019-05-03T12:48:40.410Z,18.87
2019-05-03T12:49:40.752Z,18.9
2019-05-03T12:50:41.309Z,18.8
2019-05-03T12:51:39.792Z,18.57
2019-05-03T12:52:55.375Z,18.26
2019-05-03T12:53:40.157Z,18.1
2019-05-03T12:54:40.649Z,17.87
2019-05-03T12:55:40.446Z,17.7
2019-05-03T12:56:40.741Z,17.54
2019-05-03T12:57:40.020Z,17.28
2019-05-03T12:58:40.020Z,17.22
2019-05-03T12:59:40.777Z,17.18
2019-05-03T13:00:40.008Z,17.14